Time;durP1;ratioP1;P1;durP2;ratioP2;P2;SDS_P1;SDS_P2;PMS_P1;PMS_P2;Temp;Humidity;BMP_temperature;BMP_pressure;BME280_temperature;BME280_humidity;BME280_pressure;Samples;Min_cycle;Max_cycle;Signal;HPM_P1;HPM_P2
2020/12/16 00:00:11;;;;;;;13.52;4.20;;;17.80;49.60;;;;;;1036520;28;20025;-75
2020/12/16 00:00:42;;;;;;;14.52;4.57;;;17.80;49.80;;;;;;1036462;28;20061;-75
2020/12/16 00:01:17;;;;;;;14.43;4.45;;;17.80;49.60;;;;;;1034187;28;20057;-75
2020/12/16 00:01:52;;;;;;;13.90;4.68;;;17.80;49.50;;;;;;1037880;28;20021;-75
2020/12/16 00:02:25;;;;;;;15.77;4.80;;;17.80;49.40;;;;;;1039027;28;20029;-75
2020/12/16 00:02:56;;;;;;;13.20;4.60;;;17.70;49.30;;;;;;1037091;28;20014;-75
2020/12/16 00:03:27;;;;;;;13.27;5.32;;;17.70;49.90;;;;;;1038903;28;20018;-74
2020/12/16 00:03:59;;;;;;;15.57;5.15;;;17.80;49.40;;;;;;1040835;28;20017;-75
2020/12/16 00:04:30;;;;;;;20.88;5.30;;;17.70;49.10;;;;;;1040346;28;20018;-75
2020/12/16 00:05:02;;;;;;;14.70;5.00;;;17.70;49.10;;;;;;1040494;28;20024;-75
2020/12/16 00:05:33;;;;;;;14.65;5.15;;;17.70;49.00;;;;;;1039163;28;20101;-75
2020/12/16 00:06:05;;;;;;;12.70;4.85;;;17.70;49.10;;;;;;1034539;28;20025;-75
2020/12/16 00:06:36;;;;;;;21.05;5.38;;;17.70;49.20;;;;;;1033608;28;20416;-75
2020/12/16 00:07:08;;;;;;;16.75;5.38;;;17.70;49.20;;;;;;1036332;28;20115;-75
2020/12/16 00:07:39;;;;;;;16.33;4.82;;;17.60;49.10;;;;;;1032409;28;20397;-75
2020/12/16 00:08:12;;;;;;;10.55;4.18;;;17.60;49.10;;;;;;1028783;28;20011;-74
2020/12/16 00:08:44;;;;;;;15.52;4.57;;;17.60;49.10;;;;;;1034356;28;20029;-74
2020/12/16 00:09:15;;;;;;;12.48;4.57;;;17.70;49.00;;;;;;1038623;28;20018;-75
2020/12/16 00:09:47;;;;;;;13.43;4.57;;;17.60;48.70;;;;;;1036945;28;20111;-75
2020/12/16 00:10:18;;;;;;;17.10;4.63;;;17.60;49.30;;;;;;1038953;28;20014;-75
2020/12/16 00:10:50;;;;;;;13.25;4.75;;;17.60;49.70;;;;;;1039828;28;20021;-75
2020/12/16 00:11:21;;;;;;;16.63;5.20;;;17.60;50.00;;;;;;1039604;28;20055;-75
2020/12/16 00:11:52;;;;;;;12.15;4.63;;;17.60;50.10;;;;;;1038625;28;20091;-76
2020/12/16 00:12:24;;;;;;;17.13;4.75;;;17.60;49.50;;;;;;1040283;28;20074;-75
2020/12/16 00:12:56;;;;;;;13.32;4.82;;;17.60;49.20;;;;;;1040481;28;20021;-76
2020/12/16 00:13:28;;;;;;;10.27;4.57;;;17.60;49.10;;;;;;1036767;28;20026;-75
2020/12/16 00:13:59;;;;;;;13.05;4.22;;;17.60;49.10;;;;;;1039732;28;20009;-76
2020/12/16 00:14:30;;;;;;;13.02;4.57;;;17.60;49.90;;;;;;1038940;28;20032;-75
2020/12/16 00:15:02;;;;;;;14.38;4.80;;;17.60;50.20;;;;;;1036766;28;20033;-75
2020/12/16 00:15:33;;;;;;;11.23;4.18;;;17.60;50.10;;;;;;1038249;28;20010;-75
2020/12/16 00:16:08;;;;;;;11.63;4.20;;;17.60;50.10;;;;;;1040431;28;20060;-75
2020/12/16 00:16:39;;;;;;;12.07;4.45;;;17.50;50.00;;;;;;1039408;28;20027;-75
2020/12/16 00:17:11;;;;;;;12.90;4.78;;;17.50;50.30;;;;;;1040104;28;20045;-75
2020/12/16 00:17:42;;;;;;;15.00;5.57;;;17.50;50.30;;;;;;1037661;28;20022;-75
2020/12/16 00:18:14;;;;;;;18.35;5.32;;;17.50;50.20;;;;;;1036464;28;20014;-75
2020/12/16 00:18:45;;;;;;;12.35;5.00;;;17.50;50.30;;;;;;1040337;28;20447;-75
2020/12/16 00:19:17;;;;;;;14.05;4.80;;;17.40;50.30;;;;;;1040586;28;20087;-75
2020/12/16 00:19:48;;;;;;;13.95;4.68;;;17.50;50.60;;;;;;1040375;28;20033;-75
2020/12/16 00:20:20;;;;;;;12.07;4.60;;;17.40;50.40;;;;;;1038861;28;20016;-75
2020/12/16 00:20:51;;;;;;;12.38;4.55;;;17.40;50.80;;;;;;1039403;28;20049;-74
2020/12/16 00:21:23;;;;;;;11.85;4.35;;;17.40;51.20;;;;;;1040522;28;20085;-75
2020/12/16 00:21:59;;;;;;;11.57;4.78;;;17.40;51.00;;;;;;1040759;28;20024;-75
2020/12/16 00:22:37;;;;;;;11.02;4.30;;;17.40;51.30;;;;;;1040280;28;20033;-75
2020/12/16 00:23:09;;;;;;;11.00;4.18;;;17.40;51.00;;;;;;1036172;28;20049;-75
2020/12/16 00:23:41;;;;;;;14.38;4.80;;;17.40;50.90;;;;;;1032099;28;20022;-75
2020/12/16 00:24:13;;;;;;;10.93;4.53;;;17.40;51.10;;;;;;1032139;28;20469;-75
2020/12/16 00:24:44;;;;;;;14.27;4.60;;;17.30;51.30;;;;;;1030746;28;20031;-76
2020/12/16 00:25:15;;;;;;;13.45;4.40;;;17.30;51.30;;;;;;1033983;28;20025;-75
2020/12/16 00:25:47;;;;;;;12.95;4.90;;;17.30;51.20;;;;;;1033297;28;20061;-75
2020/12/16 00:26:18;;;;;;;12.98;4.90;;;17.30;51.00;;;;;;1032715;28;20027;-75
2020/12/16 00:26:50;;;;;;;16.60;5.28;;;17.30;52.00;;;;;;1034484;28;20344;-76
2020/12/16 00:27:21;;;;;;;13.10;4.80;;;17.20;52.30;;;;;;1035489;28;20105;-75
2020/12/16 00:27:52;;;;;;;11.95;4.35;;;17.20;52.60;;;;;;1033477;28;20032;-75
2020/12/16 00:28:24;;;;;;;14.60;4.68;;;17.20;52.70;;;;;;1033429;28;20010;-74
2020/12/16 00:28:55;;;;;;;12.98;4.55;;;17.10;52.80;;;;;;1038601;28;20014;-76
2020/12/16 00:29:27;;;;;;;12.80;4.50;;;17.10;52.90;;;;;;1037567;28;20021;-75
2020/12/16 00:29:58;;;;;;;16.15;4.95;;;17.10;53.20;;;;;;1037453;28;20014;-75
2020/12/16 00:30:29;;;;;;;13.65;4.85;;;17.10;53.40;;;;;;1039308;28;20028;-74
2020/12/16 00:31:01;;;;;;;12.93;4.13;;;17.00;53.60;;;;;;1039578;28;20022;-75
2020/12/16 00:31:32;;;;;;;15.32;4.97;;;17.00;53.70;;;;;;1040336;28;20467;-74
2020/12/16 00:32:05;;;;;;;14.57;4.65;;;17.00;53.80;;;;;;1040492;28;20029;-74
2020/12/16 00:32:37;;;;;;;15.02;4.75;;;16.90;53.80;;;;;;1035137;28;20041;-75
2020/12/16 00:33:09;;;;;;;14.65;4.35;;;16.80;53.60;;;;;;1036423;28;20057;-75
2020/12/16 00:33:40;;;;;;;15.45;4.80;;;16.80;53.70;;;;;;1036790;28;20181;-74
2020/12/16 00:34:12;;;;;;;14.32;4.80;;;16.80;53.90;;;;;;1036651;28;20464;-74
2020/12/16 00:34:43;;;;;;;12.15;4.60;;;16.80;54.20;;;;;;1037833;28;20037;-75
2020/12/16 00:35:14;;;;;;;12.52;4.38;;;16.70;54.30;;;;;;1036420;28;20038;-74
2020/12/16 00:35:46;;;;;;;15.80;4.60;;;16.70;54.50;;;;;;1039064;28;20049;-74
2020/12/16 00:36:18;;;;;;;11.05;4.30;;;16.60;54.50;;;;;;1040644;28;20018;-74
2020/12/16 00:36:50;;;;;;;13.77;4.60;;;16.60;54.60;;;;;;1039340;28;20120;-74
2020/12/16 00:37:21;;;;;;;14.80;4.70;;;16.50;54.70;;;;;;1040443;28;20021;-75
2020/12/16 00:37:52;;;;;;;16.73;4.90;;;16.50;54.80;;;;;;1040451;28;20422;-75
2020/12/16 00:38:24;;;;;;;13.48;4.65;;;16.40;54.90;;;;;;1036574;28;20022;-75
2020/12/16 00:38:55;;;;;;;13.82;4.40;;;16.40;55.10;;;;;;1036248;28;20071;-75
2020/12/16 00:39:27;;;;;;;11.35;4.20;;;16.40;55.20;;;;;;1035499;28;20018;-75
2020/12/16 00:39:58;;;;;;;13.93;4.05;;;16.30;55.10;;;;;;1036834;28;20097;-75
2020/12/16 00:40:30;;;;;;;13.30;4.43;;;16.30;55.20;;;;;;1039283;28;20021;-74
2020/12/16 00:41:01;;;;;;;12.98;4.55;;;16.20;55.30;;;;;;1040173;28;20025;-75
2020/12/16 00:41:33;;;;;;;15.75;4.72;;;16.20;55.50;;;;;;1035151;28;20057;-75
2020/12/16 00:42:09;;;;;;;17.55;4.40;;;16.20;55.50;;;;;;1032293;28;20022;-75
2020/12/16 00:42:45;;;;;;;14.70;4.40;;;16.10;55.70;;;;;;1033417;28;20023;-75
2020/12/16 00:43:17;;;;;;;13.00;4.40;;;16.10;55.80;;;;;;1036593;28;20093;-75
2020/12/16 00:43:48;;;;;;;14.15;4.50;;;16.00;55.90;;;;;;1036673;28;20091;-75
2020/12/16 00:44:19;;;;;;;13.65;4.45;;;15.90;56.00;;;;;;1036534;28;20113;-75
2020/12/16 00:44:51;;;;;;;13.57;4.55;;;15.90;56.30;;;;;;1040138;28;20036;-75
2020/12/16 00:45:22;;;;;;;14.15;4.35;;;15.90;56.40;;;;;;1040682;28;20032;-74
2020/12/16 00:45:53;;;;;;;12.50;4.00;;;15.80;56.20;;;;;;1040088;28;20018;-74
2020/12/16 00:46:25;;;;;;;12.32;4.53;;;15.90;56.20;;;;;;1038514;28;20056;-75
2020/12/16 00:46:56;;;;;;;11.30;4.40;;;15.80;56.70;;;;;;1040152;28;20026;-75
2020/12/16 00:47:31;;;;;;;14.02;4.82;;;15.80;56.40;;;;;;1040224;28;20025;-75
2020/12/16 00:48:03;;;;;;;13.65;4.65;;;15.80;56.40;;;;;;1039898;28;20463;-75
2020/12/16 00:48:34;;;;;;;10.90;4.18;;;15.80;56.50;;;;;;1035638;28;20026;-74
2020/12/16 00:49:06;;;;;;;18.17;5.20;;;15.80;56.60;;;;;;1031646;28;20031;-75
2020/12/16 00:49:37;;;;;;;16.45;4.47;;;15.80;56.50;;;;;;1034278;28;20022;-75
2020/12/16 00:50:10;;;;;;;14.80;4.80;;;15.80;56.50;;;;;;1034863;28;20490;-75
2020/12/16 00:50:41;;;;;;;14.63;4.32;;;15.80;56.70;;;;;;1032604;28;20021;-75
2020/12/16 00:51:15;;;;;;;11.13;4.40;;;15.70;56.70;;;;;;1034972;28;20030;-75
2020/12/16 00:51:51;;;;;;;12.90;4.47;;;15.70;56.90;;;;;;1040337;28;20049;-74
2020/12/16 00:52:29;;;;;;;11.77;4.40;;;15.70;57.10;;;;;;1038580;28;20029;-75
2020/12/16 00:53:00;;;;;;;12.52;4.40;;;15.60;57.00;;;;;;1038857;28;20006;-75
2020/12/16 00:53:32;;;;;;;11.15;4.53;;;15.60;57.10;;;;;;1036477;28;20120;-75
2020/12/16 00:54:03;;;;;;;15.38;4.70;;;15.60;57.40;;;;;;1038026;28;20092;-75
2020/12/16 00:54:35;;;;;;;14.65;4.50;;;15.60;57.40;;;;;;1040443;28;20036;-76
2020/12/16 00:55:06;;;;;;;14.65;4.22;;;15.50;57.50;;;;;;1038832;28;20455;-76
2020/12/16 00:55:37;;;;;;;15.30;4.85;;;15.50;57.60;;;;;;1037541;28;20056;-75
2020/12/16 00:56:09;;;;;;;13.70;4.75;;;15.40;57.90;;;;;;1036578;28;20400;-75
2020/12/16 00:56:43;;;;;;;12.73;4.43;;;15.40;57.90;;;;;;1038101;28;20399;-76
2020/12/16 00:57:14;;;;;;;11.38;4.28;;;15.40;57.90;;;;;;1039520;28;20026;-77
2020/12/16 00:57:46;;;;;;;16.40;4.25;;;15.30;58.10;;;;;;1034940;28;20089;-76
2020/12/16 00:58:17;;;;;;;12.95;4.43;;;15.30;58.10;;;;;;1036192;28;20033;-79
2020/12/16 00:58:49;;;;;;;14.07;4.35;;;15.30;58.20;;;;;;1035847;28;20010;-77
2020/12/16 00:59:21;;;;;;;14.02;4.45;;;15.20;58.10;;;;;;1036503;28;20096;-78
2020/12/16 00:59:52;;;;;;;11.50;4.50;;;15.10;58.20;;;;;;1038267;28;20079;-75
2020/12/16 01:00:23;;;;;;;15.82;4.50;;;15.10;58.30;;;;;;1036667;28;20014;-77
2020/12/16 01:00:55;;;;;;;13.85;4.60;;;15.00;58.60;;;;;;1041328;28;20074;-77
2020/12/16 01:01:29;;;;;;;11.18;4.35;;;15.00;58.90;;;;;;1044463;28;20005;-75
2020/12/16 01:02:05;;;;;;;13.10;4.68;;;15.00;59.00;;;;;;1044015;28;20079;-74
2020/12/16 01:02:49;;;;;;;13.10;4.68;;;14.90;59.10;;;;;;1039527;28;20026;-75
2020/12/16 01:03:20;;;;;;;11.63;4.53;;;14.80;59.20;;;;;;1038024;28;20105;-75
2020/12/16 01:03:52;;;;;;;12.07;4.82;;;14.80;59.40;;;;;;1037188;28;20014;-75
2020/12/16 01:04:23;;;;;;;12.95;4.55;;;14.80;59.70;;;;;;1039244;28;20441;-75
2020/12/16 01:04:55;;;;;;;13.77;4.53;;;14.70;59.70;;;;;;1037492;28;20033;-75
2020/12/16 01:05:26;;;;;;;14.23;4.68;;;14.70;59.80;;;;;;1034715;28;20396;-75
2020/12/16 01:05:58;;;;;;;16.10;4.70;;;14.70;59.80;;;;;;1036771;28;20080;-75
2020/12/16 01:06:29;;;;;;;12.40;4.45;;;14.60;59.80;;;;;;1036018;28;20014;-75
2020/12/16 01:07:01;;;;;;;15.52;4.63;;;14.60;60.00;;;;;;1036645;28;20037;-75
2020/12/16 01:07:32;;;;;;;16.50;4.50;;;14.60;60.20;;;;;;1033283;28;20108;-74
2020/12/16 01:08:04;;;;;;;13.77;4.80;;;14.50;60.30;;;;;;1033584;28;20022;-74
2020/12/16 01:08:35;;;;;;;12.23;4.40;;;14.50;60.30;;;;;;1034596;28;20037;-74
2020/12/16 01:09:07;;;;;;;16.83;5.00;;;14.40;60.50;;;;;;1031285;28;20018;-76
2020/12/16 01:09:38;;;;;;;15.32;4.60;;;14.40;60.60;;;;;;1032693;28;20014;-75
2020/12/16 01:10:11;;;;;;;15.80;4.60;;;14.40;60.60;;;;;;1035219;28;20014;-75
2020/12/16 01:10:43;;;;;;;16.13;4.32;;;14.30;60.80;;;;;;1036935;28;20029;-74
2020/12/16 01:11:14;;;;;;;10.85;4.03;;;14.20;60.90;;;;;;1038421;28;20470;-74
2020/12/16 01:11:45;;;;;;;12.80;4.60;;;14.20;61.20;;;;;;1038460;28;20471;-74
2020/12/16 01:12:17;;;;;;;12.07;4.70;;;14.10;61.30;;;;;;1040165;28;20128;-75
2020/12/16 01:12:49;;;;;;;14.30;4.35;;;14.10;61.50;;;;;;1038656;28;20025;-75
2020/12/16 01:13:20;;;;;;;13.55;4.35;;;14.00;61.70;;;;;;1036430;28;20128;-74
2020/12/16 01:13:52;;;;;;;14.90;4.68;;;14.00;61.70;;;;;;1040366;28;20359;-75
2020/12/16 01:14:23;;;;;;;14.68;4.78;;;14.00;62.00;;;;;;1036359;28;20124;-74
2020/12/16 01:14:55;;;;;;;14.40;4.97;;;14.00;62.30;;;;;;1036118;28;20018;-75
2020/12/16 01:15:26;;;;;;;13.93;4.68;;;13.90;62.40;;;;;;1036165;28;20018;-75
2020/12/16 01:15:57;;;;;;;15.13;4.78;;;13.90;62.50;;;;;;1036776;28;20096;-75
2020/12/16 01:16:36;;;;;;;14.43;4.60;;;13.90;62.50;;;;;;1038335;28;20049;-75
2020/12/16 01:17:11;;;;;;;13.93;4.05;;;13.90;62.50;;;;;;1036250;28;20352;-75
2020/12/16 01:17:44;;;;;;;12.95;4.68;;;13.90;62.40;;;;;;1032230;28;20022;-75
2020/12/16 01:18:15;;;;;;;13.23;4.45;;;14.00;62.40;;;;;;1031497;28;20114;-74
2020/12/16 01:18:46;;;;;;;13.43;4.78;;;13.90;62.40;;;;;;1028305;28;20042;-74
2020/12/16 01:19:18;;;;;;;14.23;4.70;;;14.00;62.40;;;;;;1032917;28;20030;-74
2020/12/16 01:19:49;;;;;;;14.38;4.47;;;14.00;62.40;;;;;;1036784;28;20026;-74
2020/12/16 01:20:21;;;;;;;10.90;4.20;;;14.00;62.40;;;;;;1040311;28;20032;-75
2020/12/16 01:20:52;;;;;;;12.13;4.35;;;14.00;62.40;;;;;;1040135;28;20018;-75
2020/12/16 01:21:24;;;;;;;15.25;4.60;;;14.00;62.30;;;;;;1033430;28;20033;-74
2020/12/16 01:21:55;;;;;;;14.38;4.68;;;14.00;62.10;;;;;;1035684;28;20451;-73
2020/12/16 01:22:26;;;;;;;15.82;4.43;;;14.00;62.00;;;;;;1036587;28;20430;-75
2020/12/16 01:22:58;;;;;;;13.25;4.30;;;14.00;62.20;;;;;;1039820;28;20351;-74
2020/12/16 01:23:29;;;;;;;13.77;4.50;;;14.00;62.20;;;;;;1040401;28;20025;-74
2020/12/16 01:24:03;;;;;;;15.52;4.68;;;14.00;62.20;;;;;;1040598;28;20022;-74
2020/12/16 01:24:34;;;;;;;13.98;4.53;;;14.00;62.10;;;;;;1040131;28;20053;-75
2020/12/16 01:25:06;;;;;;;17.77;4.75;;;14.00;62.20;;;;;;1036406;28;20440;-75
2020/12/16 01:25:37;;;;;;;10.30;4.38;;;14.00;62.20;;;;;;1040383;28;20035;-74
2020/12/16 01:26:09;;;;;;;12.20;4.35;;;14.00;62.30;;;;;;1039743;28;20394;-74
2020/12/16 01:26:46;;;;;;;12.95;4.40;;;14.00;62.20;;;;;;1033735;28;20030;-75
2020/12/16 01:27:17;;;;;;;11.07;4.20;;;14.00;62.20;;;;;;1038668;28;20056;-74
2020/12/16 01:27:56;;;;;;;11.70;4.20;;;14.00;62.30;;;;;;1038354;28;20029;-74
2020/12/16 01:28:27;;;;;;;15.55;4.30;;;14.00;62.20;;;;;;1040304;28;20050;-73
2020/12/16 01:28:59;;;;;;;11.10;4.28;;;14.00;62.20;;;;;;1040004;28;20021;-74
2020/12/16 01:29:30;;;;;;;11.45;4.28;;;14.00;62.20;;;;;;1039528;28;20022;-74
2020/12/16 01:30:04;;;;;;;14.30;4.47;;;14.00;62.00;;;;;;1038643;28;20515;-74
2020/12/16 01:30:36;;;;;;;14.02;4.40;;;14.00;62.00;;;;;;1036963;28;20351;-74
2020/12/16 01:31:07;;;;;;;12.10;4.43;;;14.00;62.00;;;;;;1039903;28;20108;-74
2020/12/16 01:31:40;;;;;;;10.70;4.10;;;14.00;62.00;;;;;;1039440;28;20022;-75
2020/12/16 01:32:15;;;;;;;13.77;4.65;;;14.00;61.90;;;;;;1040749;28;20328;-74
2020/12/16 01:32:49;;;;;;;13.80;4.43;;;14.00;61.90;;;;;;1040876;28;20029;-74
2020/12/16 01:33:21;;;;;;;14.50;4.45;;;14.00;61.90;;;;;;1040032;28;20095;-74
2020/12/16 01:33:52;;;;;;;15.75;4.70;;;14.00;62.00;;;;;;1036921;28;20030;-75
2020/12/16 01:34:24;;;;;;;11.57;4.43;;;14.00;62.00;;;;;;1032709;28;20038;-75
2020/12/16 01:34:55;;;;;;;12.70;4.50;;;14.00;62.00;;;;;;1033127;28;20018;-74
2020/12/16 01:35:27;;;;;;;14.13;4.40;;;13.90;61.90;;;;;;1037527;28;20551;-75
2020/12/16 01:35:58;;;;;;;9.82;4.28;;;14.00;62.00;;;;;;1037379;28;20029;-75
2020/12/16 01:36:30;;;;;;;11.93;4.18;;;13.90;62.00;;;;;;1040915;28;20017;-74
2020/12/16 01:37:03;;;;;;;12.85;4.65;;;13.90;62.10;;;;;;1037645;28;20052;-75
2020/12/16 01:37:35;;;;;;;15.68;4.97;;;13.90;62.20;;;;;;1037456;28;20021;-74
2020/12/16 01:38:07;;;;;;;12.05;4.35;;;13.90;62.90;;;;;;1038702;28;20033;-75
2020/12/16 01:38:38;;;;;;;14.25;4.65;;;13.80;62.40;;;;;;1039861;28;20078;-74
2020/12/16 01:39:11;;;;;;;14.05;4.55;;;13.80;62.40;;;;;;1041255;28;20017;-75
2020/12/16 01:39:42;;;;;;;14.52;4.68;;;13.70;62.60;;;;;;1040761;28;20013;-75
2020/12/16 01:40:14;;;;;;;13.73;4.75;;;13.70;62.70;;;;;;1040850;28;20101;-75
2020/12/16 01:40:45;;;;;;;13.05;4.80;;;13.60;62.70;;;;;;1040519;28;20029;-75
2020/12/16 01:41:17;;;;;;;12.75;4.53;;;13.60;62.90;;;;;;1040811;28;20057;-75
2020/12/16 01:41:49;;;;;;;15.68;4.97;;;13.50;63.20;;;;;;1041066;28;20363;-75
2020/12/16 01:42:20;;;;;;;12.60;4.47;;;13.50;63.20;;;;;;1040514;28;20440;-74
2020/12/16 01:42:51;;;;;;;12.95;4.25;;;13.50;63.30;;;;;;1039184;28;20033;-74
2020/12/16 01:43:23;;;;;;;19.23;4.85;;;13.50;63.30;;;;;;1036371;28;20026;-74
2020/12/16 01:43:54;;;;;;;16.25;4.63;;;13.40;64.10;;;;;;1037323;28;20029;-74
2020/12/16 01:44:28;;;;;;;14.68;4.80;;;13.40;63.60;;;;;;1035487;28;20015;-74
2020/12/16 01:45:11;;;;;;;13.85;4.63;;;13.40;63.60;;;;;;1035168;28;20033;-75
2020/12/16 01:45:43;;;;;;;13.00;4.25;;;13.30;63.80;;;;;;1037926;28;20021;-75
2020/12/16 01:46:14;;;;;;;16.27;5.10;;;13.30;63.80;;;;;;1039235;28;20444;-74
2020/12/16 01:46:51;;;;;;;13.30;4.60;;;13.20;63.90;;;;;;1041995;28;20071;-76
2020/12/16 01:47:22;;;;;;;13.32;4.57;;;13.20;64.00;;;;;;1043407;28;20374;-74
2020/12/16 01:47:54;;;;;;;12.10;4.40;;;13.20;63.90;;;;;;1037955;28;20383;-74
2020/12/16 01:48:25;;;;;;;14.90;4.70;;;13.10;64.20;;;;;;1040389;28;20024;-74
2020/12/16 01:48:58;;;;;;;13.57;4.57;;;13.10;64.30;;;;;;1038089;28;20101;-74
2020/12/16 01:49:29;;;;;;;11.07;4.35;;;13.10;64.90;;;;;;1036037;28;20022;-74
2020/12/16 01:50:01;;;;;;;12.10;4.65;;;13.10;64.20;;;;;;1039682;28;20021;-74
2020/12/16 01:50:32;;;;;;;17.13;4.93;;;13.10;64.20;;;;;;1032702;28;20066;-74
2020/12/16 01:51:04;;;;;;;15.40;4.72;;;13.10;64.20;;;;;;1033636;28;20015;-75
2020/12/16 01:51:35;;;;;;;15.15;5.03;;;13.10;64.30;;;;;;1036239;28;20060;-74
2020/12/16 01:52:07;;;;;;;15.30;4.55;;;13.10;64.20;;;;;;1035633;28;20050;-74
2020/12/16 01:52:40;;;;;;;15.00;4.60;;;13.10;64.20;;;;;;1040449;28;20482;-74
2020/12/16 01:53:12;;;;;;;16.73;4.78;;;13.00;64.10;;;;;;1037742;28;20079;-75
2020/12/16 01:53:46;;;;;;;15.80;4.82;;;13.00;64.80;;;;;;1034130;28;20032;-74
2020/12/16 01:54:18;;;;;;;14.32;4.75;;;13.00;64.20;;;;;;1036980;28;20026;-74
2020/12/16 01:54:52;;;;;;;13.38;4.93;;;13.00;64.20;;;;;;1037088;28;20042;-74
2020/12/16 01:55:26;;;;;;;15.52;5.00;;;12.90;64.00;;;;;;1036984;28;20085;-75
2020/12/16 01:55:58;;;;;;;14.25;4.85;;;12.90;64.30;;;;;;1038011;28;20014;-75
2020/12/16 01:56:31;;;;;;;17.75;5.22;;;12.90;64.30;;;;;;1041148;28;20344;-75
2020/12/16 01:57:04;;;;;;;18.20;5.65;;;12.90;64.50;;;;;;1040870;28;20370;-74
2020/12/16 01:57:38;;;;;;;12.57;4.68;;;12.80;64.20;;;;;;1040676;28;20028;-74
2020/12/16 01:58:13;;;;;;;14.20;4.88;;;12.80;64.30;;;;;;1041266;28;20037;-74
2020/12/16 01:58:48;;;;;;;15.82;5.00;;;12.80;64.50;;;;;;1040861;28;20013;-74
2020/12/16 01:59:20;;;;;;;14.70;4.60;;;12.80;64.80;;;;;;1039770;28;20532;-75
2020/12/16 01:59:52;;;;;;;18.67;5.00;;;12.70;64.70;;;;;;1040968;28;20028;-74
2020/12/16 02:00:24;;;;;;;18.42;5.05;;;12.70;64.70;;;;;;1036125;28;20364;-74
2020/12/16 02:01:02;;;;;;;11.90;4.85;;;12.70;64.60;;;;;;1031892;28;20031;-75
2020/12/16 02:01:36;;;;;;;15.45;5.10;;;12.70;64.60;;;;;;1028768;28;20018;-74
2020/12/16 02:02:10;;;;;;;12.90;5.07;;;12.80;64.40;;;;;;1030703;28;20034;-74
2020/12/16 02:02:49;;;;;;;16.38;4.90;;;12.80;64.20;;;;;;1036762;28;20030;-75
2020/12/16 02:03:22;;;;;;;19.05;4.90;;;12.80;64.20;;;;;;1035748;28;20084;-75
2020/12/16 02:03:55;;;;;;;16.95;4.93;;;12.80;64.10;;;;;;1038887;28;20152;-75
2020/12/16 02:04:36;;;;;;;16.88;4.85;;;12.80;64.00;;;;;;1040907;28;20030;-75
2020/12/16 02:05:10;;;;;;;17.50;4.93;;;12.80;63.90;;;;;;1036522;28;20030;-75
2020/12/16 02:05:48;;;;;;;16.42;4.90;;;12.90;64.10;;;;;;1040057;28;20392;-74
2020/12/16 02:06:20;;;;;;;12.63;4.68;;;12.90;63.80;;;;;;1035990;28;20049;-74
2020/12/16 02:06:52;;;;;;;18.13;4.95;;;12.90;63.50;;;;;;1037872;28;21722;-74
2020/12/16 02:07:27;;;;;;;14.48;4.70;;;12.90;63.30;;;;;;1036126;28;20031;-74
2020/12/16 02:08:01;;;;;;;13.98;4.45;;;12.90;63.30;;;;;;1029784;28;20066;-74
2020/12/16 02:08:38;;;;;;;12.85;4.90;;;12.90;63.30;;;;;;1028501;28;20042;-75
2020/12/16 02:09:11;;;;;;;16.33;4.85;;;12.90;63.40;;;;;;1030646;28;20086;-75
2020/12/16 02:09:47;;;;;;;13.32;4.55;;;12.90;63.50;;;;;;1036221;28;20376;-74
2020/12/16 02:10:18;;;;;;;13.80;4.88;;;12.90;63.50;;;;;;1040520;28;20022;-74
2020/12/16 02:10:50;;;;;;;14.40;4.40;;;12.90;63.30;;;;;;1041035;28;20026;-75
2020/12/16 02:11:21;;;;;;;12.85;4.60;;;12.90;63.20;;;;;;1041078;28;20131;-75
2020/12/16 02:11:53;;;;;;;17.50;5.20;;;13.00;63.30;;;;;;1040419;28;20021;-74
2020/12/16 02:12:34;;;;;;;13.07;4.85;;;12.90;63.50;;;;;;1040526;28;20084;-75
2020/12/16 02:13:06;;;;;;;16.52;5.13;;;12.90;63.60;;;;;;1040470;28;20431;-75
2020/12/16 02:13:37;;;;;;;16.67;4.93;;;12.90;63.70;;;;;;1040727;28;20396;-75
2020/12/16 02:14:10;;;;;;;14.75;4.80;;;12.90;63.90;;;;;;1040870;28;20009;-74
2020/12/16 02:14:42;;;;;;;16.33;4.78;;;12.90;63.80;;;;;;1040130;28;20366;-75
2020/12/16 02:15:14;;;;;;;17.13;5.90;;;12.80;63.90;;;;;;1037056;28;20010;-74
2020/12/16 02:15:45;;;;;;;16.65;5.60;;;12.80;63.80;;;;;;1041108;28;20014;-75
2020/12/16 02:16:17;;;;;;;18.48;5.20;;;12.70;63.90;;;;;;1038870;28;20455;-74
2020/12/16 02:16:48;;;;;;;16.60;5.68;;;12.70;63.90;;;;;;1036914;28;20020;-74
2020/12/16 02:17:19;;;;;;;19.65;5.25;;;12.70;64.00;;;;;;1044586;28;20451;-74
2020/12/16 02:17:51;;;;;;;16.05;5.70;;;12.70;64.10;;;;;;1044862;28;20021;-75
2020/12/16 02:18:22;;;;;;;14.35;4.72;;;12.70;64.30;;;;;;1045092;28;20451;-75
2020/12/16 02:18:54;;;;;;;14.63;5.13;;;12.60;64.20;;;;;;1044486;28;20009;-75
2020/12/16 02:19:29;;;;;;;12.88;4.80;;;12.60;64.30;;;;;;1040791;28;20025;-74
2020/12/16 02:20:03;;;;;;;15.50;4.82;;;12.60;64.20;;;;;;1039924;28;20108;-74
2020/12/16 02:20:35;;;;;;;13.73;4.90;;;12.60;64.30;;;;;;1037526;28;20061;-75
2020/12/16 02:21:06;;;;;;;15.00;4.82;;;12.60;64.40;;;;;;1040858;28;20009;-75
2020/12/16 02:21:38;;;;;;;16.08;5.20;;;12.60;64.50;;;;;;1040929;28;20075;-75
2020/12/16 02:22:12;;;;;;;16.20;4.95;;;12.60;64.70;;;;;;1038613;28;20013;-75
2020/12/16 02:22:49;;;;;;;15.98;4.88;;;12.60;64.80;;;;;;1037998;28;20032;-75
2020/12/16 02:23:26;;;;;;;15.02;4.72;;;12.70;64.60;;;;;;1037070;28;20022;-75
2020/12/16 02:24:05;;;;;;;16.25;5.03;;;12.70;64.50;;;;;;1039496;28;20009;-75
2020/12/16 02:24:41;;;;;;;17.58;5.50;;;12.70;64.50;;;;;;1037906;28;20411;-75
2020/12/16 02:25:13;;;;;;;14.10;4.65;;;12.70;64.40;;;;;;1040905;28;20450;-75
2020/12/16 02:25:46;;;;;;;13.40;4.93;;;12.70;64.60;;;;;;1039309;28;20022;-75
2020/12/16 02:26:18;;;;;;;14.15;5.00;;;12.70;64.80;;;;;;1040982;28;20356;-74
2020/12/16 02:26:49;;;;;;;14.63;5.18;;;12.70;64.60;;;;;;1044305;28;20021;-75
2020/12/16 02:27:20;;;;;;;14.93;5.20;;;12.70;64.50;;;;;;1040796;28;20129;-75
2020/12/16 02:27:52;;;;;;;18.48;5.05;;;12.60;64.40;;;;;;1040553;28;20010;-75
2020/12/16 02:28:23;;;;;;;14.55;4.93;;;12.60;64.40;;;;;;1036124;28;20026;-75
2020/12/16 02:28:55;;;;;;;15.32;4.90;;;12.60;64.30;;;;;;1032294;28;20033;-75
2020/12/16 02:29:27;;;;;;;17.60;5.10;;;12.60;64.10;;;;;;1036653;28;20046;-75
2020/12/16 02:29:59;;;;;;;14.00;4.95;;;12.60;64.00;;;;;;1036559;28;20010;-75
2020/12/16 02:30:30;;;;;;;14.10;4.50;;;12.60;64.20;;;;;;1035668;28;20452;-75
2020/12/16 02:31:02;;;;;;;15.15;5.07;;;12.60;64.10;;;;;;1038193;28;21289;-75
2020/12/16 02:31:36;;;;;;;18.52;5.00;;;12.60;64.30;;;;;;1035253;28;20105;-75
2020/12/16 02:32:10;;;;;;;16.50;5.10;;;12.60;64.40;;;;;;1038123;28;20021;-75
2020/12/16 02:32:42;;;;;;;14.63;4.97;;;12.60;64.50;;;;;;1038929;28;20510;-75
2020/12/16 02:33:13;;;;;;;17.83;5.38;;;12.50;64.60;;;;;;1038989;28;20073;-75
2020/12/16 02:33:44;;;;;;;15.88;4.82;;;12.60;64.60;;;;;;1038983;28;20084;-75
2020/12/16 02:34:16;;;;;;;15.07;4.55;;;12.60;64.40;;;;;;1041035;28;20018;-75
2020/12/16 02:34:47;;;;;;;14.85;4.97;;;12.60;64.50;;;;;;1039117;28;20116;-75
2020/12/16 02:35:18;;;;;;;15.27;4.85;;;12.60;64.40;;;;;;1038174;28;20026;-75
2020/12/16 02:35:50;;;;;;;13.57;4.70;;;12.60;64.40;;;;;;1040655;28;20104;-75
2020/12/16 02:36:21;;;;;;;14.30;4.65;;;12.60;64.40;;;;;;1039678;28;20708;-74
2020/12/16 02:36:53;;;;;;;13.55;4.60;;;12.60;64.30;;;;;;1036578;28;20081;-75
2020/12/16 02:37:25;;;;;;;18.00;5.22;;;12.60;64.20;;;;;;1036289;28;20034;-75
2020/12/16 02:37:56;;;;;;;15.75;4.50;;;12.70;64.10;;;;;;1034855;28;20015;-76
2020/12/16 02:38:28;;;;;;;13.20;4.60;;;12.70;64.40;;;;;;1037344;28;20022;-75
2020/12/16 02:38:59;;;;;;;16.05;4.72;;;12.70;64.40;;;;;;1040597;28;20020;-75
2020/12/16 02:39:31;;;;;;;13.63;4.85;;;12.70;64.40;;;;;;1041096;28;20443;-75
2020/12/16 02:40:04;;;;;;;15.32;4.68;;;12.70;64.20;;;;;;1040285;28;20055;-74
2020/12/16 02:40:35;;;;;;;13.68;4.72;;;12.70;64.20;;;;;;1040678;28;20045;-76
2020/12/16 02:41:07;;;;;;;12.93;4.50;;;12.80;64.20;;;;;;1036540;28;20022;-75
2020/12/16 02:41:38;;;;;;;17.63;5.00;;;12.80;64.20;;;;;;1037416;28;20440;-76
2020/12/16 02:42:10;;;;;;;15.68;4.95;;;12.80;64.30;;;;;;1035764;28;20084;-74
2020/12/16 02:42:41;;;;;;;14.48;4.80;;;12.80;64.40;;;;;;1035829;28;20029;-75
2020/12/16 02:43:12;;;;;;;16.38;4.57;;;12.80;64.40;;;;;;1038768;28;20030;-74
2020/12/16 02:43:44;;;;;;;13.98;4.40;;;12.80;64.50;;;;;;1039864;28;20032;-75
2020/12/16 02:44:15;;;;;;;19.90;5.00;;;12.80;64.40;;;;;;1039810;28;20033;-74
2020/12/16 02:44:47;;;;;;;13.82;4.70;;;12.80;64.40;;;;;;1039010;28;20036;-75
2020/12/16 02:45:18;;;;;;;17.45;4.85;;;12.80;64.40;;;;;;1038772;28;20518;-75
2020/12/16 02:45:50;;;;;;;16.17;5.18;;;12.80;64.40;;;;;;1037947;28;20034;-75